Lake Levels Lake Levels   »   United States   »   Texas
LAKES RIVERS MARINAS NEWS HOUSES EVENTS MAPS
1,681 Lakes:
Lake Store

Lake Levels in Texas, United States

Lake Name Current
Level
Full Pool +/-
Full Pool
Reading
Date - Time
Alan Henry (TX) 2,215.42 2,224.00 -8.58 4/15/2024  10:30 AM
Amistad (TX) 1,050.84 1,117.00 -66.16 4/15/2024  5:15 AM
Amon Carter (TX) 918.89 920.00 -1.11 4/15/2024  8:00 AM
Aquilla (TX) 538.04 537.50 0.54 4/15/2024  2:30 AM
Arlington (TX) 549.88 550.00 -0.12 4/15/2024  12:00 AM
Arrowhead (TX) 917.72 926.00 -8.28 4/15/2024  7:00 AM
Athens (TX) 440.75 440.00 0.75 4/15/2024  9:30 AM
Austin (TX) 492.10 492.80 -0.70 4/15/2024  9:00 AM
Bardwell (TX) 422.13 421.00 1.13 4/15/2024  9:30 AM
Belton (TX) 584.62 594.00 -9.38 4/15/2024  9:00 AM
Benbrook (TX) 693.54 694.00 -0.46 4/15/2024  10:00 AM
Bob Sandlin (TX) 337.85 337.50 0.35 4/14/2024  9:47 AM
Bonham (TX) 565.26 565.00 0.26 4/15/2024  9:00 AM
Brady Creek (TX) 1,729.73 1,743.00 -13.27 4/15/2024  9:45 AM
Bridgeport (TX) 821.23 836.00 -14.77 4/15/2024  10:00 AM
Brownwood (TX) 28.47 1,425.00 -1,396.53 3/18/2024  12:30 AM
Buchanan (TX) 995.09 1,020.50 -25.41 4/15/2024  10:05 AM
Caddo (LA TX) 173.20 168.50 4.70 4/15/2024  6:00 AM
Canyon (TX) 886.90 909.00 -22.10 4/15/2024  2:15 AM
Cedar Creek (TX) 322.00 322.00 -0.00 4/15/2024  2:45 AM
Champion Creek (TX) 2,068.00 2,083.00 -15.00 4/15/2024  7:00:31 AM
Cherokee (TX) 280.51 280.00 0.51 4/15/2024  8:45 AM
Choke Canyon (TX) 191.96 220.50 -28.54 4/15/2024  6:30 AM
Cisco (TX) 1,510.74 1,520.00 -9.26 4/15/2024  3:30 PM
Coleman (TX) 1,708.02 1,718.00 -9.98 4/15/2024  10:30 AM
Coleto Creek (TX) 97.82 98.28 -0.46 4/15/2024  10:00 AM
Colorado City (TX) 2,056.00 2,070.20 -14.20 4/15/2024  7:00:31 AM
Conroe (TX) 201.23 201.00 0.23 4/15/2024  10:45 AM
Corpus Christi (TX) 85.02 94.00 -8.98 4/15/2024  8:41 AM
E. V. Spence (TX) 1,849.80 1,898.00 -48.20 4/15/2024  10:00 AM
Eagle Mountain (TX) 644.79 649.00 -4.21 4/15/2024  9:00 AM
Falcon (TX) 266.15 301.20 -35.05 4/15/2024  10:30 AM
Fork (TX) 403.19 403.00 0.19 4/15/2024  10:30 AM
Georgetown (TX) 784.42 791.00 -6.58 4/15/2024  10:00 AM
Graham (TX) 1,068.98 1,075.00 -6.02 4/15/2024  9:00 AM
Granbury (TX) 692.49 693.00 -0.51 4/15/2024  10:35 AM
Granger (TX) 505.36 504.00 1.36 4/15/2024  2:00 AM
Grapevine (TX) 536.18 535.00 1.18 4/15/2024  10:45 AM
Hords Creek (TX) 1,879.19 1,900.00 -20.81 4/15/2024  2:30 AM
Houston (TX) 42.84 42.40 0.44 4/15/2024  10:30 AM
Hubbard Creek (TX) 1,171.16 1,183.00 -11.84 4/15/2024  10:15 AM
Hubert M Moss (TX) 714.87 715.00 -0.13 4/15/2024  2:15 AM
Inks (TX) 887.39 886.90 0.49 4/15/2024  6:00 AM
Jacksonville (TX) 422.28 422.00 0.28 4/15/2024  12:00 AM
JB Thomas (TX) 2,225.94 2,258.00 -32.06 4/15/2024  10:45 AM
Jim Chapman (TX) 441.29 440.00 1.29 4/14/2024  9:47 AM
Joe Pool (TX) 521.95 522.00 -0.05 4/15/2024  7:00 AM
Kemp (TX) 1,139.50 1,144.00 -4.50 4/15/2024  10:15 AM
Kickapoo (TX) 1,037.05 1,045.00 -7.95 4/15/2024  9:00 AM
Lake O' the Pines (TX) 232.45 228.50 3.95 4/14/2024  9:47 AM
Lavon (TX) 493.43 492.00 1.43 4/15/2024  10:00 AM
Leon (TX) 1,364.38 4/15/2024  10:30 AM
Lewisville (TX) 523.40 522.00 1.40 4/15/2024  10:15 AM
Limestone (TX) 363.11 363.00 0.11 4/15/2024  10:45 AM
Livingston (TX) 131.97 131.00 0.97 4/15/2024  12:00 AM
Lyndon B. Johnson (TX) 824.71 825.00 -0.29 4/15/2024  10:05 AM
MacKenzie (TX) 3,014.89 3,100.00 -85.11 4/15/2024  10:30 AM
Marble Falls (TX) 736.52 737.00 -0.48 4/15/2024  10:05 AM
Martin Creek (TX) 306.03 306.00 0.03 4/15/2024  10:30 AM
Medina (TX) 972.78 1,062.00 -89.22 4/15/2024  8:00 AM
Meredith (TX) 2,891.01 2,941.00 -49.99 4/15/2024  10:30 AM
Mexia (TX) 448.44 448.30 0.14 4/15/2024  5:45 AM
Millers Creek (TX) 1,325.39 1,334.00 -8.61 4/15/2024  10:00 AM
Mineral Wells (TX) 863.73 863.00 0.73 4/15/2024  7:30 AM
Moss Creek (TX) 2,332.46 2,337.00 -4.54 4/15/2024  10:45 AM
Mountain Creek (TX) 457.54 457.00 0.54 4/15/2024  7:45 AM
Murvaul (TX) 266.25 265.50 0.75 4/14/2024  9:47 AM
Nacogdoches (TX) 279.95 279.00 0.95 4/14/2024  9:47 AM
Natural Dam Salt (TX) 2,447.28 2,457.00 -9.72 4/15/2024  12:00 AM
Navarro Mills (TX) 426.38 424.50 1.88 4/15/2024  4:00 AM
Nocona (TX) 821.85 827.00 -5.15 4/15/2024  10:00 AM
O. C. Fisher (TX) 1,856.14 1,908.00 -51.86 4/15/2024  3:00 AM
O.H. Ivie (TX) 1,519.85 1,551.50 -31.65 4/15/2024  9:45 AM
Oak Creek (TX) 1,983.42 2,000.00 -16.58 4/15/2024  12:00 AM
Palestine (TX) 346.74 345.00 1.74 4/15/2024  9:00 AM
Palo Pinto (TX) 858.23 867.00 -8.77 4/15/2024  10:15 AM
Pat Cleburne (TX) 733.84 733.60 0.24 4/15/2024  9:00 AM
Pat Mayse (TX) 455.69 451.00 4.69 4/14/2024  9:47 AM
Phantom Hill (TX) 1,628.83 1,635.90 -7.07 4/15/2024  10:30 AM
Possum Kingdom (TX) 998.93 1,000.00 -1.07 4/15/2024  10:30 AM
Proctor (TX) 1,149.79 1,162.00 -12.21 4/15/2024  10:30 AM
Ray Hubbard (TX) 435.55 435.50 0.05 4/15/2024  8:45 AM
Ray Roberts (TX) 633.32 632.50 0.82 4/15/2024  10:15 AM
Red Bluff (TX) 2,812.36 2,827.13 -14.77 4/15/2024  10:15 AM
Richland Chambers (TX) 315.50 315.00 0.50 4/15/2024  10:30 AM
Sam Rayburn (TX) 159.24 164.40 -5.16 4/15/2024  10:31 AM
Somerville (TX) 238.56 238.00 0.56 4/15/2024  10:00 AM
Squaw Creek (TX) 775.16 775.00 0.16 4/15/2024  10:00 AM
Stamford (TX) 1,413.40 1,417.00 -3.60 4/15/2024  7:30 AM
Steinhagen Reservoir (TX) 81.60 82.40 -0.80 4/15/2024  10:00 AM
Stillhouse Hollow (TX) 607.31 622.00 -14.69 4/15/2024  7:00 AM
Striker (TX) 292.64 292.93 -0.29 4/15/2024  9:45 AM
Tawakoni (TX) 438.62 437.50 1.12 4/15/2024  10:15 AM
Texana (TX) 43.87 44.00 -0.13 4/15/2024  9:00 AM
Texoma (TX) 615.48 617.00 -1.52 4/15/2024  10:00 AM
Toledo Bend (TX LA) 173.08 172.00 1.08 4/15/2024  5:30 AM
Travis (TX) 630.75 681.00 -50.25 4/15/2024  9:00 AM
Twin Buttes (TX) 1,906.77 1,940.00 -33.23 4/15/2024  12:00 AM
Tyler (TX) 375.80 375.50 0.30 4/15/2024  12:00 AM
Waco (TX) 462.72 462.00 0.72 4/15/2024  7:15 AM
Waxahachie (TX) 531.98 4/15/2024  12:00 AM
Weatherford (TX) 890.88 896.00 -5.12 4/15/2024  10:45 AM
White River (TX) 2,352.59 4/15/2024  10:15 AM
Whitney (TX) 533.33 533.00 0.33 4/15/2024  8:15 AM
Worth (TX) 591.00 594.00 -3.00 4/15/2024  10:00 AM
Wright Patman (TX) 231.56 220.60 10.96 4/14/2024  9:47 AM


CURRENT DAILY STREAMFLOW CONDITIONS
High
90th percentile
75th - 89th percentile
25th - 74th percentile
10th - 24th percentile
10th percentile
Low
Not ranked

The colored dots on this map depict streamflow conditions as a percentile, which is computed from the period of record for the current day of the year. Only stations with at least 30 years of record are used. The gray circles indicate other stations that were not ranked in percentiles either because they have fewer than 30 years of record or because they report parameters other than streamflow. Some stations, for example, measure stage only.
U.S. Daily Streamflow Conditions



U.S. Drought Monitor